| Record Date MM/DD/YYYY | Record Time HH:MM:SS | Record Julian Date NNN day of the year | Air Temperature Max (Degrees Fahrenheit F) | Time Max Air Temperature HH:MM:SS This is the time of max air temp for the prior hour interval listed for record [Time]. | Air Temperature Min (Degrees Fahrenheit F) | Time Min Air Temperature HH:MM:SS This is the time of min air temp for the prior hour interval listed for record [Time]. | Air Temperature Observed (Degrees Fahrenheit F) This is an instantaneous reading at the record [Time]. | Relative Humidity Max (Percent) | Time Max Relative Humidity HH:MM:SS This is the time of max relative humidity for the prior hour interval listed for record [Time]. | Relative Humidity Min (Percent) | Time Min Relative Humidity HH:MM:SS This is the time of min relative humidity for the prior hour interval listed for record [Time]. | Relative Humidity Observed (Percent) This is an instantaneous reading at the record [Time]. | Precipitation (Inches n.nn) rain fall that occurred during the prior hour interval listed for record [Time]. | Wind Speed (Miles Per Hour) Resultant Speed that occurred during the prior hour interval listed for record [Time]. | Wind Direction (Degrees) Resultant Direction that occurred during the prior hour interval listed for record [Time]. | Solar Radiation (Langley's) that occurred during the prior hour interval listed for record [Time]. | Soil Temperature Average at 2 inch depth (Degrees Fahrenheit F) that occurred during the prior hour interval listed for record [Time]. | Soil Temperature Observed at 2 inch depth (Degrees Fahrenheit F) This is an instantaneous reading at the record [Time]. | Soil Temperature Average at 4 inch depth (Degrees Fahrenheit F) that occurred during the prior hour interval listed for record [Time]. | Soil Temperature Observed at 4 inch depth (Degrees Fahrenheit F) This is an instantaneous reading at the record [Time]. |
|---|---|---|---|---|---|---|---|---|---|---|---|---|---|---|---|---|---|---|---|---|
| 08/29/2026 | 0:00:00 | 241 | 69 | 23:00:00 | 67 | 23:16:01 | 68 | 88 | 23:19:02 | 83 | 23:00:01 | 84.1 | 0 | 1.4 | 306 | 0 | 84 | 84 | 87 | 86 |
| 08/29/2026 | 1:00:00 | 241 | 68 | 0:00:00 | 67 | 0:57:02 | 67 | 89 | 0:59:03 | 84 | 0:00:01 | 88.9 | 0 | 2.7 | 302 | 0 | 83 | 82 | 86 | 85 |
| 08/29/2026 | 2:00:00 | 241 | 67 | 1:04:05 | 65 | 1:17:00 | 67 | 92 | 1:27:05 | 87 | 1:14:02 | 89.6 | 0 | 1.3 | 307 | 0 | 82 | 81 | 84 | 84 |
| 08/29/2026 | 3:00:00 | 241 | 67 | 2:54:03 | 66 | 2:27:01 | 66 | 91 | 2:11:00 | 89 | 2:31:00 | 89.7 | 0 | 2.1 | 309 | 0 | 81 | 80 | 84 | 83 |
| 08/29/2026 | 4:00:00 | 241 | 67 | 3:58:02 | 65 | 3:26:01 | 67 | 93 | 3:41:05 | 90 | 3:08:05 | 92 | 0 | 1.7 | 301 | 0 | 80 | 80 | 83 | 82 |
| 08/29/2026 | 5:00:00 | 241 | 67 | 4:01:02 | 66 | 4:44:05 | 66 | 94 | 4:53:03 | 92 | 4:13:04 | 93.1 | 0 | 2.7 | 296 | 0 | 79 | 79 | 82 | 82 |
| 08/29/2026 | 6:00:00 | 241 | 66 | 5:01:03 | 65 | 5:41:03 | 66 | 94 | 5:52:05 | 93 | 5:19:03 | 93.1 | 0 | 1.5 | 300 | 1 | 79 | 78 | 81 | 81 |
| 08/29/2026 | 7:00:00 | 241 | 72 | 6:59:05 | 66 | 6:00:00 | 72 | 93 | 6:00:03 | 86 | 7:00:00 | 85.8 | 0 | 1.3 | 298 | 12 | 78 | 78 | 81 | 80 |
| 08/29/2026 | 8:00:00 | 241 | 78 | 7:59:05 | 72 | 7:02:00 | 78 | 86 | 7:06:00 | 74 | 8:00:00 | 73.76 | 0 | 1.7 | 7 | 29 | 78 | 79 | 80 | 80 |
| 08/29/2026 | 9:00:00 | 241 | 83 | 8:58:02 | 77 | 8:02:00 | 83 | 73 | 8:00:00 | 60 | 8:59:00 | 60.85 | 0 | 2.0 | 45 | 46 | 80 | 81 | 80 | 81 |
| 08/29/2026 | 10:00:00 | 241 | 89 | 9:50:01 | 83 | 9:00:01 | 88 | 62 | 9:00:04 | 45 | 9:58:03 | 47.16 | 0 | 1.9 | 21 | 60 | 83 | 84 | 81 | 82 |
| 08/29/2026 | 11:00:00 | 241 | 90 | 10:33:00 | 88 | 10:00:00 | 89 | 50 | 10:50:00 | 40 | 10:33:03 | 41.64 | 0 | 2.3 | 353 | 70 | 86 | 88 | 83 | 85 |
| 08/29/2026 | 12:00:00 | 241 | 91 | 11:14:05 | 89 | 11:11:02 | 90 | 45 | 11:21:04 | 33 | 11:53:02 | 39.22 | 0 | 3.1 | 311 | 75 | 90 | 92 | 86 | 88 |
| 08/29/2026 | 13:00:00 | 241 | 93 | 12:37:00 | 90 | 12:25:01 | 91 | 41 | 12:04:03 | 34 | 12:17:01 | 39 | 0 | 3.3 | 19 | 75 | 94 | 95 | 89 | 90 |
| 08/29/2026 | 14:00:00 | 241 | 93 | 13:26:05 | 91 | 13:12:03 | 92 | 41 | 13:17:00 | 32 | 13:58:05 | 33.19 | 0 | 2.9 | 62 | 69 | 97 | 98 | 92 | 93 |
| 08/29/2026 | 15:00:00 | 241 | 94 | 14:16:05 | 92 | 14:52:04 | 92 | 41 | 14:07:01 | 28 | 14:41:04 | 30.82 | 0 | 3.4 | 257 | 60 | 99 | 99 | 94 | 95 |
| 08/29/2026 | 16:00:00 | 241 | 94 | 15:14:02 | 92 | 15:38:03 | 93 | 36 | 15:46:05 | 27 | 15:15:01 | 30.02 | 0 | 3.4 | 280 | 46 | 100 | 100 | 96 | 97 |
| 08/29/2026 | 17:00:00 | 241 | 94 | 16:51:01 | 93 | 16:16:04 | 94 | 38 | 16:33:04 | 29 | 16:09:02 | 30.01 | 0 | 2.1 | 282 | 29 | 100 | 99 | 97 | 97 |
| 08/29/2026 | 18:00:00 | 241 | 94 | 17:08:02 | 88 | 18:00:00 | 88 | 48 | 17:57:02 | 30 | 17:03:05 | 45.65 | 0 | 0.5 | 337 | 12 | 98 | 98 | 97 | 97 |
| 08/29/2026 | 19:00:00 | 241 | 88 | 18:00:00 | 74 | 18:59:05 | 74 | 75 | 18:59:05 | 45 | 18:01:04 | 75.3 | 0 | 1.3 | 283 | 1 | 96 | 95 | 96 | 96 |
| 08/29/2026 | 20:00:00 | 241 | 76 | 19:18:00 | 72 | 19:54:00 | 72 | 77 | 19:52:03 | 67 | 19:18:00 | 75.04 | 0 | 1.4 | 290 | 0 | 94 | 93 | 95 | 94 |
| 08/29/2026 | 21:00:00 | 241 | 72 | 20:07:04 | 69 | 21:00:00 | 69 | 84 | 20:44:04 | 74 | 20:06:04 | 83.6 | 0 | 1.3 | 315 | 0 | 91 | 90 | 93 | 92 |
| 08/29/2026 | 22:00:00 | 241 | 69 | 21:00:00 | 66 | 21:21:01 | 68 | 90 | 21:47:01 | 84 | 21:00:00 | 87.5 | 0 | 0.4 | 283 | 0 | 89 | 88 | 91 | 90 |
| 08/29/2026 | 23:00:00 | 241 | 69 | 22:20:00 | 68 | 22:56:02 | 68 | 90 | 22:47:03 | 87 | 22:21:01 | 89.3 | 0 | 0.6 | 330 | 0 | 88 | 87 | 90 | 89 |
| 08/30/2026 | 0:00:00 | 242 | 68 | 23:00:00 | 66 | 23:44:03 | 66 | 91 | 23:54:05 | 89 | 23:41:04 | 90.9 | 0 | 0.1 | 293 | 0 | 86 | 85 | 88 | 88 |
| 08/30/2026 | 1:00:00 | 242 | 67 | 0:41:01 | 66 | 0:01:02 | 67 | 93 | 0:58:04 | 91 | 0:00:05 | 92.9 | 0 | 0.2 | 299 | 0 | 85 | 84 | 87 | 86 |
| 08/30/2026 | 2:00:00 | 242 | 67 | 1:04:01 | 64 | 1:46:00 | 65 | 94 | 1:59:02 | 91 | 1:41:03 | 93.4 | 0 | 0.8 | 305 | 0 | 84 | 83 | 86 | 85 |
| 08/30/2026 | 3:00:00 | 242 | 66 | 2:52:03 | 65 | 2:03:05 | 66 | 94 | 2:26:05 | 93 | 2:03:04 | 93.4 | 0 | 1.1 | 306 | 0 | 83 | 82 | 85 | 85 |
| 08/30/2026 | 4:00:00 | 242 | 66 | 3:06:03 | 64 | 3:59:01 | 64 | 93 | 3:00:01 | 92 | 3:49:00 | 92.4 | 0 | 0.4 | 304 | 0 | 82 | 81 | 84 | 84 |
| 08/30/2026 | 5:00:00 | 242 | 65 | 4:55:02 | 63 | 4:20:03 | 65 | 94 | 4:49:04 | 92 | 4:00:02 | 93.7 | 0 | 0.5 | 288 | 0 | 81 | 81 | 83 | 83 |
| 08/30/2026 | 6:00:00 | 242 | 66 | 5:27:01 | 65 | 5:40:05 | 66 | 94 | 5:14:01 | 93 | 5:40:00 | 93.6 | 0 | 1.0 | 301 | 1 | 80 | 80 | 83 | 82 |
| 08/30/2026 | 7:00:00 | 242 | 74 | 6:59:05 | 66 | 6:00:01 | 74 | 94 | 6:00:00 | 82 | 6:59:00 | 82.7 | 0 | 0.4 | 189 | 11 | 80 | 80 | 82 | 82 |
| 08/30/2026 | 8:00:00 | 242 | 80 | 7:56:00 | 74 | 7:00:00 | 80 | 83 | 7:00:00 | 72 | 7:33:00 | 75.72 | 0 | 1.1 | 189 | 27 | 80 | 81 | 82 | 82 |
| 08/30/2026 | 9:00:00 | 242 | 86 | 8:59:00 | 79 | 8:04:05 | 86 | 76 | 8:05:04 | 64 | 8:59:02 | 65.96 | 0 | 2.3 | 217 | 43 | 82 | 83 | 82 | 82 |
| 08/30/2026 | 10:00:00 | 242 | 92 | 9:47:01 | 86 | 9:00:02 | 91 | 67 | 9:00:01 | 51 | 9:59:05 | 51.13 | 0 | 2.6 | 216 | 57 | 84 | 86 | 83 | 84 |
| 08/30/2026 | 11:00:00 | 242 | 93 | 10:44:00 | 90 | 11:00:00 | 90 | 62 | 10:59:02 | 49 | 10:04:02 | 56.77 | 0 | 3.1 | 209 | 60 | 88 | 90 | 85 | 86 |
| 08/30/2026 | 12:00:00 | 242 | 94 | 11:44:05 | 89 | 11:08:00 | 93 | 66 | 11:08:05 | 50 | 11:48:03 | 50.25 | 0 | 4.3 | 186 | 66 | 91 | 92 | 87 | 89 |
| 08/30/2026 | 13:00:00 | 242 | 95 | 12:32:04 | 92 | 12:44:04 | 94 | 59 | 12:44:01 | 48 | 12:34:01 | 51 | 0 | 3.7 | 196 | 57 | 94 | 95 | 90 | 91 |
| 08/30/2026 | 14:00:00 | 242 | 96 | 13:54:03 | 92 | 13:33:02 | 96 | 62 | 13:11:01 | 48 | 13:56:05 | 50 | 0 | 3.4 | 198 | 50 | 96 | 97 | 92 | 93 |
| 08/30/2026 | 15:00:00 | 242 | 97 | 14:32:03 | 94 | 14:11:03 | 96 | 58 | 14:38:03 | 48 | 14:28:05 | 53.01 | 0 | 4.2 | 193 | 57 | 97 | 98 | 94 | 95 |
| 08/30/2026 | 16:00:00 | 242 | 96 | 15:11:04 | 92 | 15:35:04 | 94 | 57 | 15:18:02 | 50 | 15:20:03 | 52.84 | 0 | 4.4 | 158 | 34 | 99 | 99 | 96 | 96 |
| 08/30/2026 | 17:00:00 | 242 | 95 | 16:48:04 | 93 | 16:18:05 | 94 | 57 | 16:21:01 | 48 | 16:47:00 | 52.29 | 0 | 4.6 | 136 | 29 | 99 | 99 | 97 | 97 |
| 08/30/2026 | 18:00:00 | 242 | 94 | 17:00:00 | 90 | 17:59:04 | 90 | 61 | 17:53:01 | 50 | 17:08:00 | 58.44 | 0 | 3.1 | 148 | 12 | 98 | 98 | 97 | 97 |
| 08/30/2026 | 19:00:00 | 242 | 90 | 18:00:00 | 82 | 18:53:00 | 83 | 75 | 18:50:03 | 58 | 18:01:01 | 73.47 | 0 | 0.8 | 191 | 1 | 97 | 96 | 96 | 96 |
| 08/30/2026 | 20:00:00 | 242 | 83 | 19:10:03 | 82 | 19:59:05 | 82 | 74 | 19:00:03 | 71 | 19:13:04 | 72.16 | 0 | 0.0 | 0 | 0 | 95 | 94 | 95 | 95 |
| 08/30/2026 | 21:00:00 | 242 | 82 | 20:00:01 | 78 | 20:58:05 | 78 | 80 | 20:56:04 | 72 | 20:02:02 | 79.43 | 0 | 0.7 | 224 | 0 | 93 | 92 | 94 | 93 |
| 08/30/2026 | 22:00:00 | 242 | 79 | 21:48:01 | 77 | 21:28:03 | 78 | 80 | 21:27:05 | 77 | 21:48:02 | 77.89 | 0 | 0.3 | 229 | 0 | 91 | 91 | 92 | 92 |
| 08/30/2026 | 23:00:00 | 242 | 78 | 22:00:01 | 75 | 22:57:03 | 75 | 84 | 22:58:03 | 78 | 22:00:00 | 84.2 | 0 | 0.5 | 223 | 0 | 90 | 89 | 91 | 91 |
| 08/31/2026 | 0:00:00 | 243 | 76 | 23:53:03 | 75 | 23:00:00 | 76 | 84 | 23:01:00 | 82 | 23:55:02 | 83.3 | 0 | 0.3 | 225 | 0 | 89 | 88 | 90 | 90 |
| 08/31/2026 | 1:00:00 | 243 | 77 | 0:26:00 | 74 | 0:59:01 | 74 | 86 | 0:59:03 | 81 | 0:27:00 | 86.2 | 0 | 0.3 | 23 | 0 | 87 | 87 | 89 | 89 |
| 08/31/2026 | 2:00:00 | 243 | 74 | 1:00:00 | 73 | 1:58:05 | 73 | 89 | 1:59:05 | 86 | 1:01:00 | 89 | 0 | 0.7 | 304 | 0 | 86 | 86 | 88 | 88 |
| 08/31/2026 | 3:00:00 | 243 | 73 | 2:07:03 | 72 | 2:38:02 | 72 | 91 | 2:43:05 | 89 | 2:06:02 | 89.7 | 0 | 0.4 | 305 | 0 | 86 | 85 | 87 | 87 |
| 08/31/2026 | 4:00:00 | 243 | 72 | 3:00:00 | 71 | 3:39:04 | 72 | 91 | 3:44:00 | 90 | 3:00:00 | 91.1 | 0 | 0.3 | 303 | 0 | 85 | 84 | 87 | 86 |
| 08/31/2026 | 5:00:00 | 243 | 72 | 4:00:03 | 71 | 4:37:05 | 71 | 92 | 4:34:05 | 91 | 4:00:00 | 92.1 | 0 | 0.4 | 298 | 0 | 84 | 84 | 86 | 86 |
| 08/31/2026 | 6:00:00 | 243 | 71 | 5:04:00 | 71 | 5:43:05 | 71 | 94 | 5:58:04 | 92 | 5:08:04 | 93.7 | 0 | 0.2 | 299 | 1 | 83 | 83 | 85 | 85 |
| 08/31/2026 | 7:00:00 | 243 | 79 | 6:59:04 | 71 | 6:00:03 | 79 | 94 | 6:09:00 | 82 | 6:59:04 | 82.4 | 0 | 0.4 | 189 | 11 | 83 | 83 | 85 | 84 |
| 08/31/2026 | 8:00:00 | 243 | 84 | 7:57:05 | 79 | 7:00:05 | 84 | 83 | 7:03:05 | 76 | 7:52:00 | 76.62 | 0 | 1.5 | 176 | 27 | 83 | 84 | 84 | 84 |
| 08/31/2026 | 9:00:00 | 243 | 88 | 8:54:00 | 84 | 8:01:01 | 87 | 78 | 8:07:02 | 69 | 8:38:05 | 71.41 | 0 | 3.2 | 196 | 43 | 84 | 86 | 84 | 85 |
| 08/31/2026 | 10:00:00 | 243 | 91 | 9:58:05 | 87 | 9:00:00 | 91 | 73 | 9:01:03 | 61 | 9:59:01 | 61.26 | 0 | 3.4 | 228 | 57 | 87 | 88 | 85 | 86 |
| 08/31/2026 | 11:00:00 | 243 | 92 | 10:45:02 | 90 | 10:31:04 | 91 | 66 | 10:06:01 | 57 | 10:46:05 | 58.68 | 0 | 3.6 | 288 | 49 | 90 | 91 | 87 | 88 |
| 08/31/2026 | 12:00:00 | 243 | 95 | 11:53:01 | 90 | 11:32:03 | 95 | 61 | 11:31:04 | 51 | 11:54:01 | 54.71 | 0 | 2.4 | 273 | 54 | 92 | 93 | 89 | 90 |
| 08/31/2026 | 13:00:00 | 243 | 97 | 12:30:01 | 94 | 12:22:00 | 94 | 57 | 12:04:00 | 47 | 12:46:02 | 49.33 | 0 | 3.2 | 276 | 62 | 95 | 96 | 91 | 92 |
| 08/31/2026 | 14:00:00 | 243 | 97 | 13:56:04 | 92 | 13:07:01 | 96 | 59 | 13:31:05 | 46 | 13:57:00 | 47.18 | 0 | 2.6 | 198 | 46 | 97 | 98 | 93 | 94 |
| 08/31/2026 | 15:00:00 | 243 | 99 | 14:59:01 | 96 | 14:00:02 | 99 | 54 | 14:04:02 | 44 | 14:13:00 | 49.39 | 0 | 2.5 | 193 | 59 | 98 | 99 | 95 | 96 |
| 08/31/2026 | 16:00:00 | 243 | 99 | 15:00:00 | 92 | 15:34:00 | 93 | 64 | 15:34:00 | 46 | 15:00:01 | 59.2 | 0 | 2.3 | 196 | 25 | 100 | 100 | 97 | 97 |
| 08/31/2026 | 17:00:00 | 243 | 97 | 17:00:00 | 91 | 16:11:05 | 97 | 66 | 16:08:03 | 46 | 16:59:00 | 46.68 | 0 | 0.7 | 262 | 11 | 100 | 99 | 98 | 98 |
| 08/31/2026 | 18:00:00 | 243 | 98 | 17:03:05 | 93 | 17:32:01 | 94 | 62 | 17:20:01 | 44 | 17:04:00 | 54.47 | 0 | 0.6 | 241 | 11 | 98 | 98 | 97 | 97 |
| 08/31/2026 | 19:00:00 | 243 | 94 | 18:00:01 | 85 | 18:59:02 | 85 | 72 | 18:55:03 | 55 | 18:00:00 | 70.8 | 0 | 0.6 | 294 | 1 | 97 | 96 | 97 | 96 |
| 08/31/2026 | 20:00:00 | 243 | 85 | 19:00:00 | 81 | 19:56:01 | 81 | 78 | 19:55:04 | 71 | 19:00:00 | 77.55 | 0 | 0.0 | 233 | 0 | 95 | 94 | 96 | 95 |
| 08/31/2026 | 21:00:00 | 243 | 82 | 20:26:01 | 79 | 20:58:05 | 80 | 81 | 20:59:04 | 75 | 20:25:05 | 80.8 | 0 | 0.3 | 284 | 0 | 93 | 93 | 94 | 94 |
| 08/31/2026 | 22:00:00 | 243 | 80 | 21:24:03 | 78 | 21:59:03 | 79 | 83 | 21:09:04 | 78 | 21:50:01 | 80.3 | 0 | 0.5 | 325 | 0 | 92 | 91 | 93 | 92 |
| 08/31/2026 | 23:00:00 | 243 | 79 | 22:08:05 | 77 | 22:27:03 | 77 | 84 | 22:34:03 | 80 | 22:08:00 | 82.9 | 0 | 1.4 | 308 | 0 | 91 | 90 | 92 | 91 |
| 09/01/2026 | 0:00:00 | 244 | 77 | 23:00:03 | 75 | 23:59:05 | 75 | 88 | 23:58:02 | 83 | 23:01:02 | 88.4 | 0 | 0.3 | 299 | 0 | 89 | 89 | 91 | 90 |
| 09/01/2026 | 1:00:00 | 244 | 75 | 0:48:00 | 75 | 0:01:00 | 75 | 89 | 0:03:00 | 87 | 0:48:04 | 87.4 | 0 | 0.9 | 303 | 0 | 88 | 88 | 90 | 89 |
| 09/01/2026 | 2:00:00 | 244 | 75 | 1:15:01 | 72 | 1:59:05 | 72 | 92 | 1:59:04 | 87 | 1:00:02 | 91.4 | 0 | 0.3 | 248 | 0 | 88 | 87 | 89 | 89 |
| 09/01/2026 | 3:00:00 | 244 | 74 | 2:44:00 | 72 | 2:05:02 | 74 | 93 | 2:21:01 | 90 | 2:52:00 | 90.6 | 0 | 0.3 | 269 | 0 | 87 | 86 | 88 | 88 |
| 09/01/2026 | 4:00:00 | 244 | 74 | 3:14:00 | 72 | 3:43:00 | 73 | 92 | 3:46:05 | 90 | 3:22:01 | 91.3 | 0 | 0.6 | 318 | 0 | 86 | 86 | 88 | 87 |
| 09/01/2026 | 5:00:00 | 244 | 73 | 4:09:03 | 72 | 4:55:03 | 72 | 92 | 4:28:02 | 91 | 4:53:03 | 91.3 | 0 | 0.3 | 66 | 0 | 85 | 85 | 87 | 87 |
| 09/01/2026 | 6:00:00 | 244 | 73 | 5:59:03 | 71 | 5:07:01 | 73 | 94 | 5:38:00 | 91 | 5:00:05 | 93.5 | 0 | 0.4 | 226 | 1 | 85 | 84 | 86 | 86 |
| 09/01/2026 | 7:00:00 | 244 | 79 | 6:57:03 | 73 | 6:00:01 | 79 | 94 | 6:00:00 | 83 | 6:37:01 | 84 | 0 | 0.6 | 31 | 11 | 84 | 84 | 86 | 86 |
| 09/01/2026 | 8:00:00 | 244 | 86 | 7:58:00 | 79 | 7:00:00 | 86 | 84 | 7:01:01 | 69 | 7:58:05 | 71.85 | 0 | 1.4 | 168 | 27 | 84 | 85 | 85 | 85 |
| 09/01/2026 | 9:00:00 | 244 | 91 | 8:59:03 | 86 | 8:03:00 | 91 | 73 | 8:00:04 | 65 | 8:59:04 | 66.25 | 0 | 1.6 | 181 | 43 | 86 | 87 | 86 | 86 |
| 09/01/2026 | 10:00:00 | 244 | 94 | 9:59:03 | 90 | 9:07:02 | 94 | 70 | 9:10:03 | 57 | 9:44:03 | 59.01 | 0 | 2.6 | 194 | 57 | 88 | 89 | 87 | 87 |
| 09/01/2026 | 11:00:00 | 244 | 96 | 10:55:01 | 93 | 10:03:03 | 95 | 62 | 10:21:03 | 49 | 10:57:01 | 53.46 | 0 | 2.4 | 182 | 68 | 91 | 93 | 88 | 89 |
| 09/01/2026 | 12:00:00 | 244 | 97 | 11:35:05 | 95 | 11:48:04 | 95 | 59 | 11:02:01 | 47 | 11:36:04 | 49.61 | 0 | 3.5 | 221 | 76 | 94 | 96 | 91 | 92 |
| 09/01/2026 | 13:00:00 | 244 | 99 | 12:58:05 | 95 | 12:00:04 | 98 | 58 | 12:07:04 | 45 | 12:39:05 | 49.02 | 0 | 3.3 | 238 | 77 | 98 | 99 | 93 | 95 |
| 09/01/2026 | 14:00:00 | 244 | 101 | 13:41:05 | 96 | 13:54:05 | 97 | 56 | 13:09:04 | 40 | 13:39:03 | 47.38 | 0 | 3.2 | 206 | 59 | 100 | 101 | 96 | 97 |
| 09/01/2026 | 15:00:00 | 244 | 101 | 14:48:01 | 97 | 14:00:00 | 100 | 55 | 14:35:05 | 40 | 14:45:03 | 45.12 | 0 | 2.7 | 211 | 56 | 102 | 102 | 98 | 99 |
| 09/01/2026 | 16:00:00 | 244 | 100 | 15:00:00 | 98 | 15:39:05 | 99 | 54 | 15:50:02 | 39 | 15:08:05 | 46.53 | 0 | 2.5 | 180 | 44 | 103 | 103 | 99 | 100 |
| 09/01/2026 | 17:00:00 | 244 | 100 | 16:08:03 | 97 | 16:44:04 | 98 | 50 | 16:00:05 | 41 | 16:09:00 | 42.02 | 0 | 3.7 | 67 | 27 | 103 | 103 | 100 | 101 |
| 09/01/2026 | 18:00:00 | 244 | 98 | 17:18:02 | 93 | 17:59:05 | 93 | 51 | 17:59:02 | 40 | 17:20:04 | 50.38 | 0 | 2.3 | 100 | 11 | 102 | 101 | 101 | 100 |
| 09/01/2026 | 19:00:00 | 244 | 93 | 18:00:01 | 87 | 19:00:00 | 87 | 60 | 18:59:05 | 49 | 18:16:03 | 59.54 | 0 | 0.7 | 83 | 0 | 100 | 99 | 100 | 99 |
| 09/01/2026 | 20:00:00 | 244 | 87 | 19:00:00 | 82 | 19:59:05 | 82 | 73 | 19:59:05 | 60 | 19:00:00 | 73.31 | 0 | 1.1 | 300 | 0 | 98 | 97 | 99 | 98 |
| 09/01/2026 | 21:00:00 | 244 | 82 | 20:00:00 | 79 | 20:59:03 | 79 | 83 | 21:00:00 | 73 | 20:13:05 | 83.4 | 0 | 1.0 | 292 | 0 | 96 | 95 | 97 | 96 |
| 09/01/2026 | 22:00:00 | 244 | 80 | 21:45:00 | 78 | 21:06:05 | 79 | 84 | 21:02:02 | 76 | 21:43:01 | 78.41 | 0 | 0.2 | 276 | 0 | 95 | 94 | 96 | 95 |
| 09/01/2026 | 23:00:00 | 244 | 79 | 22:00:01 | 78 | 22:59:03 | 78 | 82 | 22:59:00 | 78 | 22:13:03 | 81.4 | 0 | 0.3 | 311 | 0 | 93 | 92 | 94 | 94 |
| 09/02/2026 | 0:00:00 | 245 | 78 | 23:00:01 | 76 | 23:58:03 | 76 | 84 | 23:59:02 | 81 | 23:00:03 | 83.9 | 0 | 1.0 | 304 | 0 | 92 | 91 | 93 | 93 |
| 09/02/2026 | 1:00:00 | 245 | 76 | 0:18:04 | 76 | 0:57:00 | 76 | 86 | 0:59:05 | 84 | 0:19:00 | 85.6 | 0 | 1.5 | 298 | 0 | 91 | 90 | 92 | 92 |
| 09/02/2026 | 2:00:00 | 245 | 76 | 1:00:00 | 74 | 1:26:02 | 74 | 91 | 1:30:00 | 86 | 1:02:02 | 88.1 | 0 | 0.1 | 87 | 0 | 90 | 89 | 91 | 91 |
| 09/02/2026 | 3:00:00 | 245 | 75 | 2:09:03 | 74 | 2:38:04 | 75 | 89 | 2:46:00 | 86 | 2:20:03 | 87.7 | 0 | 1.2 | 352 | 0 | 89 | 88 | 90 | 90 |
| 09/02/2026 | 4:00:00 | 245 | 75 | 3:03:00 | 73 | 3:49:03 | 73 | 90 | 3:59:04 | 88 | 3:03:04 | 90.2 | 0 | 0.5 | 300 | 0 | 88 | 88 | 90 | 89 |
| 09/02/2026 | 5:00:00 | 245 | 73 | 4:00:00 | 72 | 4:59:05 | 73 | 92 | 4:31:04 | 90 | 4:22:03 | 91.3 | 0 | 0.4 | 260 | 0 | 87 | 87 | 89 | 89 |
| 09/02/2026 | 6:00:00 | 245 | 73 | 5:38:01 | 72 | 5:18:02 | 73 | 93 | 5:23:04 | 91 | 5:00:00 | 91.8 | 0 | 0.5 | 285 | 0 | 87 | 86 | 88 | 88 |
| 09/02/2026 | 7:00:00 | 245 | 81 | 7:00:00 | 73 | 6:04:03 | 81 | 93 | 6:09:00 | 80 | 6:59:01 | 80.8 | 0 | 0.3 | 121 | 9 | 86 | 86 | 88 | 87 |
| 09/02/2026 | 8:00:00 | 245 | 86 | 7:59:04 | 81 | 7:00:00 | 86 | 83 | 7:12:02 | 74 | 7:56:03 | 74.79 | 0 | 1.3 | 195 | 26 | 86 | 86 | 87 | 87 |
| 09/02/2026 | 9:00:00 | 245 | 91 | 8:51:01 | 86 | 8:00:00 | 90 | 76 | 8:10:00 | 64 | 9:00:00 | 64.37 | 0 | 1.9 | 285 | 42 | 87 | 88 | 87 | 88 |
| 09/02/2026 | 10:00:00 | 245 | 94 | 9:59:05 | 90 | 9:01:04 | 94 | 65 | 9:02:01 | 56 | 9:51:01 | 57 | 0 | 1.6 | 88 | 56 | 89 | 91 | 88 | 89 |
| 09/02/2026 | 11:00:00 | 245 | 96 | 10:37:02 | 93 | 10:15:04 | 95 | 63 | 10:01:02 | 51 | 11:00:00 | 50.55 | 0 | 2.4 | 207 | 60 | 92 | 93 | 90 | 91 |
| 09/02/2026 | 12:00:00 | 245 | 97 | 11:45:01 | 95 | 11:00:05 | 97 | 59 | 11:29:05 | 47 | 11:51:01 | 49.36 | 0 | 3.1 | 214 | 72 | 95 | 96 | 92 | 93 |
| 09/02/2026 | 13:00:00 | 245 | 99 | 12:48:01 | 97 | 12:00:02 | 98 | 58 | 12:19:00 | 44 | 12:45:04 | 47.57 | 0 | 2.9 | 212 | 77 | 98 | 100 | 94 | 96 |
| 09/02/2026 | 14:00:00 | 245 | 98 | 13:06:02 | 94 | 13:43:00 | 94 | 61 | 13:23:04 | 47 | 13:09:05 | 59.07 | 0 | 2.2 | 220 | 21 | 101 | 101 | 97 | 98 |
| 09/02/2026 | 15:00:00 | 245 | 101 | 14:19:01 | 94 | 14:05:03 | 98 | 62 | 14:02:01 | 41 | 14:19:05 | 46.08 | 0 | 2.1 | 211 | 46 | 101 | 101 | 98 | 98 |
| 09/02/2026 | 16:00:00 | 245 | 100 | 15:19:05 | 98 | 15:54:05 | 98 | 50 | 15:00:01 | 40 | 15:41:03 | 43.34 | 0 | 2.1 | 158 | 42 | 101 | 102 | 99 | 99 |
| 09/02/2026 | 17:00:00 | 245 | 101 | 16:59:00 | 98 | 16:01:00 | 101 | 53 | 16:50:01 | 38 | 16:36:00 | 45.67 | 0 | 1.5 | 73 | 26 | 102 | 101 | 100 | 100 |
| 09/02/2026 | 18:00:00 | 245 | 101 | 17:00:01 | 95 | 18:00:00 | 95 | 54 | 17:36:05 | 41 | 17:04:01 | 46.94 | 0 | 1.5 | 171 | 13 | 101 | 101 | 100 | 100 |
| 09/02/2026 | 19:00:00 | 245 | 95 | 18:00:05 | 87 | 18:43:04 | 87 | 70 | 18:52:01 | 47 | 18:02:01 | 68.71 | 0 | 0.9 | 181 | 0 | 100 | 99 | 100 | 99 |
| 09/02/2026 | 20:00:00 | 245 | 87 | 19:00:01 | 82 | 19:56:01 | 82 | 80 | 19:50:05 | 66 | 19:03:05 | 77.93 | 0 | 0.6 | 240 | 0 | 98 | 97 | 99 | 98 |
| 09/02/2026 | 21:00:00 | 245 | 82 | 20:08:01 | 81 | 20:31:00 | 81 | 81 | 20:34:00 | 74 | 20:49:03 | 77.46 | 0 | 0.5 | 198 | 0 | 97 | 96 | 97 | 97 |
| 09/02/2026 | 22:00:00 | 245 | 82 | 21:16:03 | 80 | 21:58:05 | 80 | 79 | 22:00:00 | 74 | 21:14:05 | 79.34 | 0 | 0.9 | 286 | 0 | 95 | 94 | 96 | 95 |
| 09/02/2026 | 23:00:00 | 245 | 80 | 22:00:00 | 77 | 22:48:05 | 77 | 88 | 22:58:03 | 79 | 22:00:00 | 87.5 | 0 | 0.4 | 278 | 0 | 94 | 93 | 95 | 94 |
| 09/03/2026 | 0:00:00 | 246 | 77 | 23:12:04 | 76 | 23:46:05 | 77 | 89 | 23:53:01 | 86 | 23:08:04 | 87.8 | 0 | 0.0 | 0 | 0 | 92 | 92 | 94 | 93 |
| 09/03/2026 | 1:00:00 | 246 | 77 | 0:58:01 | 76 | 0:19:05 | 77 | 88 | 0:34:00 | 87 | 0:46:05 | 87.1 | 0 | 0.3 | 223 | 0 | 91 | 91 | 93 | 92 |
| 09/03/2026 | 2:00:00 | 246 | 77 | 1:07:01 | 76 | 2:00:00 | 76 | 88 | 1:34:01 | 87 | 1:04:01 | 87 | 0 | 0.2 | 285 | 0 | 90 | 90 | 92 | 91 |
| 09/03/2026 | 3:00:00 | 246 | 76 | 2:00:00 | 75 | 2:29:02 | 75 | 90 | 2:33:05 | 87 | 2:00:00 | 89.1 | 0 | 0.4 | 316 | 0 | 89 | 89 | 91 | 91 |
| 09/03/2026 | 4:00:00 | 246 | 75 | 3:00:01 | 74 | 3:33:05 | 74 | 91 | 3:22:03 | 89 | 3:00:05 | 90.1 | 0 | 0.8 | 302 | 0 | 89 | 88 | 90 | 90 |
| 09/03/2026 | 5:00:00 | 246 | 74 | 4:00:02 | 73 | 4:33:01 | 73 | 92 | 4:42:01 | 90 | 4:31:02 | 92.1 | 0 | 0.1 | 300 | 0 | 88 | 88 | 89 | 89 |
| 09/03/2026 | 6:00:00 | 246 | 74 | 5:07:01 | 72 | 5:39:01 | 73 | 94 | 5:58:05 | 92 | 5:24:01 | 94.4 | 0 | 0.3 | 199 | 0 | 87 | 87 | 89 | 88 |
| 09/03/2026 | 7:00:00 | 246 | 80 | 6:59:05 | 73 | 6:00:00 | 80 | 94 | 6:03:03 | 82 | 6:56:05 | 82.7 | 0 | 0.5 | 116 | 9 | 87 | 86 | 88 | 88 |
| 09/03/2026 | 8:00:00 | 246 | 88 | 8:00:00 | 80 | 7:00:03 | 88 | 83 | 7:02:04 | 70 | 7:59:01 | 69.98 | 0 | 0.8 | 226 | 26 | 87 | 87 | 88 | 88 |
| 09/03/2026 | 9:00:00 | 246 | 92 | 8:50:03 | 88 | 8:00:00 | 91 | 70 | 8:00:01 | 63 | 8:50:05 | 63.89 | 0 | 1.5 | 336 | 42 | 88 | 89 | 88 | 88 |
| 09/03/2026 | 10:00:00 | 246 | 93 | 9:15:05 | 90 | 9:27:04 | 92 | 65 | 9:31:03 | 58 | 10:00:00 | 58.28 | 0 | 2.9 | 299 | 55 | 90 | 91 | 89 | 89 |
| 09/03/2026 | 11:00:00 | 246 | 97 | 10:53:04 | 92 | 10:00:01 | 96 | 61 | 10:33:00 | 51 | 10:53:04 | 53.35 | 0 | 2.5 | 202 | 66 | 92 | 94 | 90 | 91 |
| 09/03/2026 | 12:00:00 | 246 | 99 | 11:58:02 | 95 | 11:03:02 | 98 | 57 | 11:20:01 | 46 | 11:57:02 | 48.1 | 0 | 2.5 | 230 | 76 | 95 | 97 | 92 | 94 |
| 09/03/2026 | 13:00:00 | 246 | 99 | 12:03:02 | 95 | 12:56:04 | 97 | 55 | 12:27:03 | 45 | 12:50:02 | 48.94 | 0 | 3.8 | 207 | 62 | 99 | 100 | 95 | 96 |
| 09/03/2026 | 14:00:00 | 246 | 100 | 13:33:02 | 97 | 13:00:00 | 97 | 52 | 13:06:01 | 42 | 13:51:00 | 44.15 | 0 | 3.5 | 278 | 63 | 101 | 102 | 97 | 98 |
| 09/03/2026 | 15:00:00 | 246 | 99 | 14:07:04 | 96 | 14:59:05 | 96 | 54 | 14:57:04 | 42 | 14:08:00 | 52.07 | 0 | 2.0 | 244 | 23 | 102 | 102 | 99 | 100 |
| 09/03/2026 | 16:00:00 | 246 | 98 | 16:00:00 | 92 | 15:27:04 | 98 | 68 | 15:25:04 | 49 | 15:08:03 | 54.52 | 0 | 1.9 | 222 | 19 | 102 | 101 | 100 | 100 |
| 09/03/2026 | 17:00:00 | 246 | 99 | 16:17:04 | 94 | 16:36:05 | 96 | 61 | 16:34:04 | 44 | 16:19:01 | 56.86 | 0 | 1.7 | 203 | 21 | 101 | 101 | 99 | 99 |
| 09/03/2026 | 18:00:00 | 246 | 96 | 17:00:00 | 90 | 17:58:04 | 90 | 64 | 17:28:00 | 50 | 17:45:03 | 61.43 | 0 | 3.2 | 163 | 16 | 100 | 100 | 99 | 99 |
| 09/03/2026 | 19:00:00 | 246 | 90 | 18:00:00 | 81 | 18:47:02 | 82 | 89 | 18:59:04 | 62 | 18:00:01 | 88.5 | 0.01 | 1.4 | 299 | 1 | 99 | 98 | 99 | 99 |
| 09/03/2026 | 20:00:00 | 246 | 82 | 19:00:00 | 80 | 19:55:05 | 80 | 91 | 19:44:02 | 86 | 19:20:00 | 91.1 | 0 | 0.8 | 264 | 0 | 98 | 97 | 98 | 97 |
| 09/03/2026 | 21:00:00 | 246 | 80 | 20:02:00 | 79 | 20:17:05 | 79 | 92 | 20:18:03 | 88 | 20:59:05 | 88.4 | 0 | 0.7 | 135 | 0 | 96 | 95 | 96 | 96 |
| 09/03/2026 | 22:00:00 | 246 | 80 | 21:10:02 | 78 | 21:58:00 | 79 | 91 | 21:41:03 | 87 | 21:08:03 | 90.1 | 0 | 0.6 | 295 | 0 | 94 | 93 | 95 | 94 |
| 09/03/2026 | 23:00:00 | 246 | 79 | 22:21:01 | 78 | 22:56:03 | 78 | 91 | 22:15:04 | 90 | 22:30:05 | 90.9 | 0 | 0.5 | 295 | 0 | 93 | 92 | 94 | 93 |
| 09/04/2026 | 0:00:00 | 247 | 78 | 23:00:00 | 76 | 23:44:00 | 77 | 94 | 23:55:03 | 91 | 23:03:05 | 92.8 | 0 | 0.2 | 252 | 0 | 92 | 91 | 93 | 92 |
| 09/04/2026 | 1:00:00 | 247 | 77 | 0:07:00 | 75 | 0:59:05 | 75 | 93 | 0:00:00 | 91 | 0:17:02 | 91.7 | 0 | 0.9 | 303 | 0 | 91 | 90 | 92 | 91 |
| 09/04/2026 | 2:00:00 | 247 | 76 | 1:44:05 | 75 | 1:04:04 | 75 | 94 | 1:26:00 | 92 | 1:00:01 | 92.7 | 0 | 0.4 | 295 | 0 | 90 | 89 | 91 | 91 |
| 09/04/2026 | 3:00:00 | 247 | 75 | 2:00:01 | 74 | 2:50:05 | 74 | 95 | 2:59:04 | 93 | 2:04:02 | 94.6 | 0 | 0.2 | 187 | 0 | 89 | 89 | 90 | 90 |
| 09/04/2026 | 4:00:00 | 247 | 75 | 3:57:03 | 74 | 3:10:05 | 75 | 95 | 3:16:04 | 94 | 3:59:04 | 94.1 | 0 | 0.4 | 292 | 0 | 88 | 88 | 90 | 89 |
| 09/04/2026 | 5:00:00 | 247 | 75 | 4:01:00 | 74 | 4:47:01 | 74 | 95 | 4:52:03 | 94 | 5:00:00 | 93.7 | 0 | 0.5 | 320 | 0 | 88 | 87 | 89 | 89 |
| 09/04/2026 | 6:00:00 | 247 | 74 | 5:00:00 | 73 | 5:46:02 | 73 | 95 | 5:58:04 | 93 | 5:09:02 | 94.8 | 0 | 0.7 | 248 | 0 | 87 | 87 | 88 | 88 |
| 09/04/2026 | 7:00:00 | 247 | 80 | 7:00:00 | 73 | 6:00:03 | 80 | 95 | 6:00:02 | 88 | 6:59:05 | 88.3 | 0 | 0.2 | 181 | 8 | 86 | 86 | 88 | 88 |
| 09/04/2026 | 8:00:00 | 247 | 86 | 7:59:04 | 80 | 7:00:00 | 86 | 88 | 7:00:04 | 75 | 8:00:00 | 74.78 | 0 | 0.8 | 168 | 22 | 86 | 86 | 87 | 87 |
| 09/04/2026 | 9:00:00 | 247 | 89 | 8:53:04 | 85 | 8:00:04 | 89 | 77 | 8:04:03 | 67 | 8:55:05 | 68.1 | 0 | 1.5 | 218 | 42 | 87 | 88 | 87 | 88 |
| 09/04/2026 | 10:00:00 | 247 | 93 | 9:50:00 | 89 | 9:00:01 | 93 | 68 | 9:00:05 | 59 | 9:59:05 | 59.44 | 0 | 1.8 | 22 | 49 | 89 | 90 | 88 | 89 |
| 09/04/2026 | 11:00:00 | 247 | 96 | 10:53:01 | 93 | 10:00:00 | 96 | 62 | 10:02:02 | 53 | 10:54:00 | 55.8 | 0 | 2.3 | 52 | 66 | 91 | 93 | 90 | 90 |
| 09/04/2026 | 12:00:00 | 247 | 98 | 11:53:01 | 95 | 11:06:04 | 98 | 58 | 11:00:05 | 45 | 11:53:04 | 46.66 | 0 | 3.1 | 57 | 75 | 94 | 96 | 92 | 93 |
| 09/04/2026 | 13:00:00 | 247 | 100 | 12:53:01 | 96 | 12:41:04 | 99 | 56 | 12:43:01 | 45 | 12:00:03 | 48.12 | 0 | 3.1 | 197 | 67 | 97 | 99 | 94 | 95 |
| 09/04/2026 | 14:00:00 | 247 | 100 | 13:57:05 | 97 | 13:08:03 | 100 | 49 | 13:09:00 | 43 | 13:56:00 | 44.47 | 0 | 2.7 | 28 | 58 | 100 | 101 | 96 | 98 |
| 09/04/2026 | 15:00:00 | 247 | 101 | 14:14:05 | 97 | 14:44:03 | 99 | 50 | 14:08:03 | 41 | 15:00:00 | 40.78 | 0 | 2.7 | 23 | 37 | 101 | 102 | 98 | 99 |
| 09/04/2026 | 16:00:00 | 247 | 101 | 15:34:00 | 99 | 15:54:04 | 99 | 46 | 15:03:05 | 39 | 15:04:05 | 40.45 | 0 | 2.4 | 36 | 43 | 102 | 102 | 100 | 100 |
| 09/04/2026 | 17:00:00 | 247 | 101 | 16:31:04 | 98 | 17:00:00 | 98 | 45 | 16:47:02 | 39 | 16:41:03 | 42.2 | 0 | 2.8 | 58 | 27 | 102 | 102 | 100 | 100 |
| 09/04/2026 | 18:00:00 | 247 | 98 | 17:00:00 | 91 | 18:00:00 | 91 | 62 | 17:59:02 | 42 | 17:00:03 | 61.36 | 0 | 2.6 | 128 | 9 | 102 | 101 | 101 | 100 |
| 09/04/2026 | 19:00:00 | 247 | 91 | 18:00:00 | 86 | 18:59:04 | 86 | 70 | 19:00:00 | 61 | 18:00:01 | 70.04 | 0 | 0.4 | 277 | 0 | 100 | 100 | 100 | 100 |
| 09/04/2026 | 20:00:00 | 247 | 86 | 19:00:00 | 82 | 19:51:02 | 83 | 77 | 19:50:02 | 69 | 19:04:00 | 74.24 | 0 | 0.9 | 223 | 0 | 99 | 98 | 99 | 98 |
| 09/04/2026 | 21:00:00 | 247 | 86 | 20:40:02 | 80 | 20:59:05 | 80 | 80 | 21:00:00 | 66 | 20:40:00 | 79.84 | 0 | 1.4 | 232 | 0 | 97 | 96 | 98 | 97 |
| 09/04/2026 | 22:00:00 | 247 | 81 | 21:32:03 | 79 | 21:59:04 | 80 | 80 | 21:53:04 | 77 | 21:22:05 | 79.35 | 0 | 0.4 | 297 | 0 | 95 | 95 | 96 | 96 |
| 09/04/2026 | 23:00:00 | 247 | 80 | 22:16:02 | 77 | 22:43:01 | 78 | 87 | 22:47:00 | 79 | 22:15:05 | 83.3 | 0 | 0.5 | 243 | 0 | 94 | 93 | 95 | 94 |
| 09/05/2026 | 0:00:00 | 248 | 78 | 23:01:00 | 76 | 23:58:02 | 76 | 89 | 23:41:01 | 83 | 23:04:01 | 87.3 | 0 | 0.2 | 138 | 0 | 93 | 92 | 94 | 93 |
| Average | 85.01 | 81.64 | 83.35 | 75.5 | 66.98 | 70.91 | 0 | 1.51 | 21.16 | 91.6 | 91.6 | 91.38 | 91.4 | |||||||
| Total | 0.01 |